KOCW/OCW METAR and TAF weather

Enter ICAO airport designator
Station Type Date Time Source
KOCW METAR 2019/06/27 04:40 UTC NOAA

KOCW 270440Z AUTO 00000KT 10SM CLR 22/21 A3013 RMK AO2 T02220205


Station Type Date Time Source
KOCW Decoded METAR 2019/06/27 04:40 UTC NOAA

Washington, Warren Field Airport, NC, United States (KOCW) 35-34-14N 077-02-59W
Jun 27, 2019 - 12:40 AM EDT / 2019.06.27 0440 UTC
Wind: Calm:0
Visibility: 10 mile(s):0
Sky conditions: clear
Temperature: 72.0 F (22.2 C)
Dew Point: 68.9 F (20.5 C)
Relative Humidity: 90%
Pressure (altimeter): 30.13 in. Hg (1020 hPa)
ob: KOCW 270440Z AUTO 00000KT 10SM CLR 22/21 A3013 RMK AO2 T02220205
cycle: 4

Station Type Date Time Source
KOCW TAF UTC NOAA

Error!

Example: see airport list